ADDS METAR Data INFO
IDs: Format: Raw Decoded Include TAF

Data at: 1115 UTC 21 Feb 2018

K06D 201515Z AUTO 27005KT 10SM FEW034 M18/M21 A3005 RMK AO2 TSNO
K06D 201455Z AUTO 27004KT 10SM CLR M18/M21 A3006 RMK AO2 TSNO
K06D 201435Z AUTO 28005KT 10SM FEW035 FEW046 SCT060 M18/M21 A3006 RMK AO2 TSNO
K06D 201415Z AUTO 28005KT 7SM SCT027 BKN036 OVC060 M17/M20 A3006 RMK AO2 TSNO
K06D 201355Z AUTO 30004KT 5SM -SN OVC027 M17/M20 A3006 RMK AO2 TSNO
K06D 201335Z AUTO 31004KT 8SM OVC027 M17/M19 A3007 RMK AO2 TSNO
K06D 201315Z AUTO 31006KT 5SM -SN OVC024 M17/M19 A3006 RMK AO2 TSNO
K06D 201255Z AUTO 33007KT 8SM -SN OVC023 M17/M19 A3005 RMK AO2 TSNO
K06D 201235Z AUTO 33006KT 10SM -SN BKN025 BKN033 BKN041 M16/M19 A3005 RMK AO2 TSNO
K06D 201215Z AUTO 33006KT 10SM BKN033 OVC041 M16/M19 A3005 RMK AO2 TSNO
K06D 201155Z AUTO 32007KT 10SM -SN BKN034 BKN095 OVC120 M16/M19 A3006 RMK AO2 TSNO
K06D 201135Z AUTO 33007KT 7SM -SN BKN023 BKN033 OVC120 M16/M19 A3005 RMK AO2 TSNO
K06D 201115Z AUTO 33009KT 7SM -SN OVC024 M16/M19 A3003 RMK AO2 TSNO
K06D 201055Z AUTO 34007KT 10SM -SN FEW008 BKN024 OVC038 M16/M19 A3004 RMK AO2 TSNO
K06D 201035Z AUTO 30004KT 6SM -SN FEW008 SCT022 BKN043 M16/M19 A3007 RMK AO2 TSNO
K06D 201015Z AUTO 29004KT 10SM SCT026 BKN055 OVC090 M17/M19 A3009 RMK AO2 TSNO
K06D 200955Z AUTO 29004KT 10SM FEW002 SCT024 OVC070 M17/M19 A3008 RMK AO2 TSNO
K06D 200935Z AUTO 29004KT 10SM BKN003 OVC075 M17/M19 A3007 RMK AO2 TSNO
K06D 200915Z AUTO 35004KT 7SM BKN004 BKN011 OVC019 M17/M19 A3004 RMK AO2 TSNO
K06D 200855Z AUTO 00000KT 4SM -SN OVC020 M16/M19 A3006 RMK AO2 TSNO
K06D 200835Z AUTO 00000KT 4SM -SN OVC022 M17/M19 A3008 RMK AO2 TSNO
K06D 200815Z AUTO 25003KT 5SM -SN OVC019 M17/M19 A3011 RMK AO2 TSNO
K06D 200755Z AUTO 00000KT 5SM -SN BKN020 BKN030 BKN039 M16/M19 A3011 RMK AO2 TSNO
K06D 200735Z AUTO 33003KT 5SM -SN SCT020 SCT030 BKN040 M16/M19 A3010 RMK AO2 TSNO
K06D 200715Z AUTO 32004KT 4SM -SN OVC020 M16/M19 A3010 RMK AO2 TSNO
K06D 200655Z AUTO 33003KT 6SM -SN OVC022 M16/M19 A3010 RMK AO2 TSNO
K06D 200635Z AUTO 00000KT 8SM -SN FEW003 BKN024 OVC041 M16/M19 A3012 RMK AO2 TSNO
K06D 200615Z AUTO 34005KT 7SM -SN FEW004 SCT016 BKN040 M16/M19 A3011 RMK AO2 TSNO
K06D 200555Z AUTO 32005KT 10SM -SN SCT016 BKN038 OVC120 M17/M20 A3011 RMK AO2 TSNO
K06D 200535Z AUTO 00000KT 10SM FEW019 SCT026 BKN040 M17/M20 A3013 RMK AO2 TSNO
K06D 200515Z AUTO 00000KT 10SM BKN026 BKN033 OVC075 M17/M20 A3011 RMK AO2 TSNO
K06D 200455Z AUTO 00000KT 10SM SCT048 BKN065 OVC075 M17/M21 A3011 RMK AO2 TSNO
K06D 200435Z AUTO 00000KT 10SM -SN FEW060 BKN075 OVC120 M17/M21 A3012 RMK AO2 TSNO
K06D 200415Z AUTO 00000KT 10SM BKN060 OVC110 M17/M22 A3012 RMK AO2 TSNO
K06D 200355Z AUTO 00000KT 10SM FEW021 SCT027 BKN033 M17/M22 A3015 RMK AO2 TSNO
K06D 200335Z AUTO 25003KT 10SM BKN030 OVC035 M16/M22 A3016 RMK AO2 TSNO
K06D 200315Z AUTO 28003KT 10SM BKN031 BKN038 OVC043 M16/M22 A3015 RMK AO2 TSNO
K06D 200255Z AUTO 00000KT 10SM FEW038 BKN046 OVC060 M16/M23 A3015 RMK AO2 TSNO
K06D 200235Z AUTO 29004KT 10SM FEW041 SCT047 OVC060 M16/M22 A3014 RMK AO2 TSNO
K06D 200215Z AUTO 29004KT 10SM SCT047 OVC060 M16/M22 A3014 RMK AO2 TSNO
K06D 200155Z AUTO 28004KT 10SM BKN065 OVC075 M16/M22 A3015 RMK AO2 TSNO
K06D 200135Z AUTO 25006KT 10SM BKN075 OVC080 M16/M22 A3017 RMK AO2 TSNO
K06D 200115Z AUTO 25005KT 10SM BKN060 OVC080 M16/M22 A3016 RMK AO2 TSNO
K06D 200055Z AUTO 26005KT 10SM BKN065 OVC085 M16/M22 A3016 RMK AO2 TSNO
K06D 200035Z AUTO 24006KT 10SM BKN070 OVC080 M16/M22 A3017 RMK AO2 TSNO
K06D 200015Z AUTO 24006KT 10SM OVC075 M16/M22 A3016 RMK AO2 TSNO
K06D 192355Z AUTO 23007KT 10SM OVC080 M16/M22 A3016 RMK AO2 TSNO
K06D 192335Z AUTO 23007KT 10SM BKN080 M16/M22 A3015 RMK AO2 TSNO